Time;durP1;ratioP1;P1;durP2;ratioP2;P2;SDS_P1;SDS_P2;PMS_P1;PMS_P2;Temp;Humidity;BMP_temperature;BMP_pressure;BME280_temperature;BME280_humidity;BME280_pressure;Samples;Min_cycle;Max_cycle;Signal;HPM_P1;HPM_P2
2021/06/03 00:03:55;;;;;;;;;;;;;;;10.46;58.33;97623.22;1445147;98;20127;-85
2021/06/03 00:06:55;;;;;;;;;;;;;;;10.50;56.88;97630.43;1457376;98;20122;-86
2021/06/03 00:10:04;;;;;;;;;;;;;;;10.52;57.95;97629.85;1453823;93;20129;-87
2021/06/03 00:15:34;;;;;;;;;;;;;;;10.56;59.35;97625.56;1497812;90;20131;-85
2021/06/03 00:18:20;;;;;;;;;;;;;;;10.58;58.88;97624.98;1425247;99;20217;-86
2021/06/03 00:23:57;;;;;;;;;;;;;;;10.62;59.75;97631.70;1414895;100;20138;-85
2021/06/03 00:26:47;;;;;;;;;;;;;;;10.66;58.30;97637.63;1422856;100;20175;-83
2021/06/03 00:29:23;;;;;;;;;;;;;;;10.68;59.08;97635.70;1405860;101;20130;-85
2021/06/03 00:31:57;;;;;;;;;;;;;;;10.69;58.79;97633.92;1433466;96;20155;-85
2021/06/03 00:34:32;;;;;;;;;;;;;;;10.68;59.67;97643.61;1498827;95;20151;-84
2021/06/03 00:37:06;;;;;;;;;;;;;;;10.69;58.83;97635.23;1499225;94;20176;-83
2021/06/03 00:39:42;;;;;;;;;;;;;;;10.69;60.23;97636.06;1527658;94;20154;-83
2021/06/03 00:42:30;;;;;;;;;;;;;;;10.70;59.76;97644.34;1554215;91;20156;-84
2021/06/03 00:45:13;;;;;;;;;;;;;;;10.69;59.23;97633.92;1544359;91;20148;-84
2021/06/03 00:47:54;;;;;;;;;;;;;;;10.70;57.80;97643.52;1531875;91;20130;-84
2021/06/03 00:50:41;;;;;;;;;;;;;;;10.70;59.20;97646.98;1559141;91;20175;-86
2021/06/03 00:53:18;;;;;;;;;;;;;;;10.68;58.44;97638.33;1586195;90;20140;-83
2021/06/03 00:58:37;;;;;;;;;;;;;;;10.67;57.91;97633.18;1583906;89;20162;-84
2021/06/03 01:01:14;;;;;;;;;;;;;;;10.62;58.96;97633.52;1628248;84;20192;-84
2021/06/03 01:03:53;;;;;;;;;;;;;;;10.63;58.54;97635.20;1623314;88;20188;-84
2021/06/03 01:06:36;;;;;;;;;;;;;;;10.62;58.46;97626.92;1661941;86;20121;-84
2021/06/03 01:09:40;;;;;;;;;;;;;;;10.62;58.78;97628.24;1655174;84;20084;-84
2021/06/03 01:12:24;;;;;;;;;;;;;;;10.63;59.18;97629.44;1644198;86;20111;-82
2021/06/03 01:15:10;;;;;;;;;;;;;;;10.63;59.18;97632.08;1620864;87;20111;-84
2021/06/03 01:17:41;;;;;;;;;;;;;;;10.62;58.97;97640.11;1609825;88;20166;-83
2021/06/03 01:20:24;;;;;;;;;;;;;;;10.63;58.12;97638.66;1715518;81;20103;-84
2021/06/03 01:23:10;;;;;;;;;;;;;;;10.62;58.49;97640.11;1765662;81;20104;-84
2021/06/03 01:25:51;;;;;;;;;;;;;;;10.60;60.71;97645.50;1747128;80;20154;-84
2021/06/03 01:28:31;;;;;;;;;;;;;;;10.61;60.55;97639.73;1745062;82;20175;-84
2021/06/03 01:33:59;;;;;;;;;;;;;;;10.59;59.46;97647.77;1682358;84;20197;-85
2021/06/03 01:36:45;;;;;;;;;;;;;;;10.61;58.31;97651.14;1682322;85;20095;-84
2021/06/03 01:39:31;;;;;;;;;;;;;;;10.61;60.01;97639.73;1682427;85;20154;-86
2021/06/03 01:42:12;;;;;;;;;;;;;;;10.63;58.40;97650.53;1588695;90;20097;-85
2021/06/03 01:44:52;;;;;;;;;;;;;;;10.62;58.84;97644.06;1526004;94;20096;-84
2021/06/03 01:47:32;;;;;;;;;;;;;;;10.13;58.12;97575.91;1502740;96;20187;-85
2021/06/03 01:52:52;;;;;;;;;;;;;;;10.62;59.21;97650.16;1525880;94;20203;-86
2021/06/03 01:55:32;;;;;;;;;;;;;;;10.65;58.84;97650.90;1484681;96;20174;-85
2021/06/03 01:58:13;;;;;;;;;;;;;;;10.63;58.64;97652.34;1458269;97;20147;-85
2021/06/03 02:01:10;;;;;;;;;;;;;;;10.66;58.71;97652.59;1464637;94;20124;-85
2021/06/03 02:10:35;;;;;;;;;;;;;;;10.70;59.00;97656.70;1494778;93;20129;-84
2021/06/03 02:13:26;;;;;;;;;;;;;;;10.70;58.54;97657.53;1508851;95;20156;-83
2021/06/03 02:16:42;;;;;;;;;;;;;;;10.71;59.11;97651.80;1518123;93;20460;-84
2021/06/03 02:19:26;;;;;;;;;;;;;;;10.72;59.45;97656.09;1541982;91;20328;-84
2021/06/03 02:24:52;;;;;;;;;;;;;;;10.74;58.64;97662.10;1527904;93;20437;-82
2021/06/03 02:27:26;;;;;;;;;;;;;;;10.76;58.71;97658.89;1540812;93;20124;-84
2021/06/03 02:30:03;;;;;;;;;;;;;;;10.76;59.50;97660.20;1552012;93;20209;-86
2021/06/03 02:32:50;;;;;;;;;;;;;;;10.78;58.63;97659.63;1573099;90;20112;-84
2021/06/03 02:35:24;;;;;;;;;;;;;;;10.78;59.73;97655.67;1534763;94;20099;-84
2021/06/03 02:38:05;;;;;;;;;;;;;;;10.75;59.20;97662.02;1535329;94;20130;-84
2021/06/03 02:40:48;;;;;;;;;;;;;;;10.76;58.78;97661.03;1534991;94;20120;-84
2021/06/03 02:43:33;;;;;;;;;;;;;;;10.77;58.72;97656.62;1535031;94;20139;-85
2021/06/03 02:46:16;;;;;;;;;;;;;;;10.78;59.28;97660.94;1534696;88;20152;-83
2021/06/03 02:48:48;;;;;;;;;;;;;;;10.81;58.82;97655.91;1477159;93;20145;-84
2021/06/03 02:51:37;;;;;;;;;;;;;;;10.83;58.55;97658.80;1469848;97;20120;-85
2021/06/03 02:54:10;;;;;;;;;;;;;;;10.84;58.85;97663.13;1507944;95;20164;-85
2021/06/03 02:57:01;;;;;;;;;;;;;;;10.86;58.94;97653.31;1463934;97;20156;-83
2021/06/03 02:59:35;;;;;;;;;;;;;;;10.88;58.82;97654.52;1440773;100;20158;-84
2021/06/03 03:02:30;;;;;;;;;;;;;;;10.90;58.93;97661.35;1470425;96;20155;-83
2021/06/03 03:05:04;;;;;;;;;;;;;;;10.93;58.29;97662.95;1478816;97;20135;-81
2021/06/03 03:07:49;;;;;;;;;;;;;;;10.97;57.74;97670.16;1471368;95;20104;-84
2021/06/03 03:10:27;;;;;;;;;;;;;;;10.99;58.75;97668.26;1463569;96;20123;-86
2021/06/03 03:15:44;;;;;;;;;;;;;;;11.04;58.65;97677.49;1440975;99;20503;-84
2021/06/03 03:18:27;;;;;;;;;;;;;;;11.07;58.74;97681.73;1397109;102;20162;-84
2021/06/03 03:21:06;;;;;;;;;;;;;;;11.09;57.46;97681.11;1425716;100;20105;-84
2021/06/03 03:23:39;;;;;;;;;;;;;;;11.01;58.71;97663.69;1430263;100;20238;-84
2021/06/03 03:26:14;;;;;;;;;;;;;;;11.15;58.76;97685.96;1445880;97;20158;-83
2021/06/03 03:29:02;;;;;;;;;;;;;;;11.19;58.59;97686.58;1434827;97;20184;-83
2021/06/03 03:31:41;;;;;;;;;;;;;;;11.23;58.98;97686.23;1374936;103;20141;-84
2021/06/03 03:34:08;;;;;;;;;;;;;;;11.28;57.68;97689.86;1387203;102;20190;-82
2021/06/03 03:36:45;;;;;;;;;;;;;;;11.31;57.83;97689.64;1420879;100;20178;-84
2021/06/03 03:39:17;;;;;;;;;;;;;;;11.34;58.46;97690.71;1392815;103;20182;-84
2021/06/03 03:41:55;;;;;;;;;;;;;;;11.39;58.12;97691.69;1408878;101;20238;-86
2021/06/03 03:44:25;;;;;;;;;;;;;;;11.43;58.02;97693.16;1410452;97;20448;-85
2021/06/03 03:47:00;;;;;;;;;;;;;;;11.47;58.00;97693.28;1468250;97;20159;-84
2021/06/03 03:49:41;;;;;;;;;;;;;;;11.51;58.26;97697.39;1434640;97;20187;-86
2021/06/03 03:52:11;;;;;;;;;;;;;;;11.55;58.06;97698.00;1418879;101;20124;-84
2021/06/03 03:54:39;;;;;;;;;;;;;;;11.59;57.97;97704.75;1465052;96;20120;-84
2021/06/03 03:57:12;;;;;;;;;;;;;;;11.64;57.82;97698.63;1524288;94;20398;-83
2021/06/03 03:59:56;;;;;;;;;;;;;;;11.71;57.94;97703.80;1462316;98;20132;-86
2021/06/03 04:02:41;;;;;;;;;;;;;;;11.79;57.86;97708.52;1454702;98;20150;-86
2021/06/03 04:05:18;;;;;;;;;;;;;;;11.85;57.48;97712.50;1442137;98;20143;-83
2021/06/03 04:07:55;;;;;;;;;;;;;;;11.93;57.76;97711.89;1463696;96;20188;-84
2021/06/03 04:10:30;;;;;;;;;;;;;;;12.02;57.64;97706.80;1506229;95;20115;-87
2021/06/03 04:13:35;;;;;;;;;;;;;;;12.12;57.47;97706.09;1463626;96;20110;-87
2021/06/03 04:16:19;;;;;;;;;;;;;;;12.28;56.84;97708.40;1479077;96;20180;-85
2021/06/03 04:18:53;;;;;;;;;;;;;;;12.46;56.46;97708.75;1490261;94;20157;-87
2021/06/03 04:21:22;;;;;;;;;;;;;;;12.60;56.25;97713.81;1506986;91;20466;-86
2021/06/03 04:23:48;;;;;;;;;;;;;;;12.79;56.30;97715.00;1571944;91;20197;-87
2021/06/03 04:26:15;;;;;;;;;;;;;;;13.07;55.80;97712.79;1571722;91;20454;-87
2021/06/03 04:28:41;;;;;;;;;;;;;;;13.50;55.86;97719.07;1570479;91;20254;-85
2021/06/03 04:31:08;;;;;;;;;;;;;;;14.01;55.47;97717.00;1569252;92;20130;-87
2021/06/03 04:33:35;;;;;;;;;;;;;;;14.44;54.07;97723.56;1569240;92;20126;-85
2021/06/03 04:36:02;;;;;;;;;;;;;;;14.82;53.63;97728.70;1570873;87;20110;-87
2021/06/03 04:38:28;;;;;;;;;;;;;;;15.26;53.75;97725.28;1644319;87;20120;-85
2021/06/03 04:40:55;;;;;;;;;;;;;;;15.73;52.00;97733.06;1614326;88;20145;-87
2021/06/03 04:43:21;;;;;;;;;;;;;;;16.14;51.26;97734.23;1614256;89;20216;-85
2021/06/03 04:45:48;;;;;;;;;;;;;;;16.54;50.31;97730.47;1732515;81;20117;-83
2021/06/03 04:48:14;;;;;;;;;;;;;;;16.85;49.34;97728.88;1763761;81;20106;-86
2021/06/03 04:50:42;;;;;;;;;;;;;;;17.16;48.51;97726.77;1730584;81;20410;-85
2021/06/03 04:53:09;;;;;;;;;;;;;;;17.50;49.78;97725.28;1708777;84;20113;-85
2021/06/03 04:55:36;;;;;;;;;;;;;;;17.87;47.18;97728.76;1741379;82;20096;-86
2021/06/03 04:58:04;;;;;;;;;;;;;;;18.18;46.99;97725.70;1741341;82;20100;-86
2021/06/03 05:00:33;;;;;;;;;;;;;;;18.44;46.20;97724.38;1761436;81;20164;-85
2021/06/03 05:03:00;;;;;;;;;;;;;;;18.63;49.05;97728.63;1765305;81;20130;-84
2021/06/03 05:05:27;;;;;;;;;;;;;;;18.66;46.51;97731.00;1765352;81;20195;-85
2021/06/03 05:07:55;;;;;;;;;;;;;;;18.83;44.22;97736.41;1765283;81;20086;-86
2021/06/03 05:10:22;;;;;;;;;;;;;;;19.05;45.41;97727.00;1747010;81;20174;-83
2021/06/03 05:12:49;;;;;;;;;;;;;;;19.25;43.46;97726.73;1761651;81;20197;-85
2021/06/03 05:15:18;;;;;;;;;;;;;;;19.63;41.52;97731.15;1765049;81;20118;-85
2021/06/03 05:17:44;;;;;;;;;;;;;;;20.27;40.45;97727.83;1765249;81;20107;-86
2021/06/03 05:20:14;;;;;;;;;;;;;;;20.95;39.83;97724.81;1749310;81;20097;-84
2021/06/03 05:22:42;;;;;;;;;;;;;;;21.63;36.64;97727.81;1741852;82;20148;-86
2021/06/03 05:25:12;;;;;;;;;;;;;;;22.23;38.57;97727.98;1741924;81;20125;-86
2021/06/03 05:27:39;;;;;;;;;;;;;;;22.76;34.81;97720.76;1741443;82;20133;-86
2021/06/03 05:30:07;;;;;;;;;;;;;;;23.14;36.51;97720.30;1741728;81;20162;-86
2021/06/03 05:32:34;;;;;;;;;;;;;;;23.46;34.34;97723.56;1741333;81;20113;-85
2021/06/03 05:35:01;;;;;;;;;;;;;;;23.98;33.59;97723.81;1742895;81;20124;-85
2021/06/03 05:37:27;;;;;;;;;;;;;;;24.49;31.18;97725.94;1741074;82;20183;-85
2021/06/03 05:39:53;;;;;;;;;;;;;;;24.95;31.51;97726.75;1741427;81;20088;-85
2021/06/03 05:42:20;;;;;;;;;;;;;;;25.57;36.53;97725.95;1743079;81;20104;-85
2021/06/03 05:44:47;;;;;;;;;;;;;;;26.13;29.59;97723.97;1764763;81;20479;-84
2021/06/03 05:47:13;;;;;;;;;;;;;;;26.66;30.22;97721.72;1765122;81;20150;-85
2021/06/03 05:49:40;;;;;;;;;;;;;;;27.15;28.85;97718.66;1764961;81;20126;-86
2021/06/03 05:52:06;;;;;;;;;;;;;;;27.48;28.37;97721.77;1765150;81;20114;-86
2021/06/03 05:54:33;;;;;;;;;;;;;;;27.88;32.16;97729.11;1764482;81;20416;-86
2021/06/03 05:56:59;;;;;;;;;;;;;;;28.22;27.36;97722.10;1765179;81;20162;-86
2021/06/03 05:59:26;;;;;;;;;;;;;;;28.44;27.43;97724.42;1756052;81;20101;-87
2021/06/03 06:01:59;;;;;;;;;;;;;;;28.64;25.87;97723.67;1743339;81;20104;-85
2021/06/03 06:06:51;;;;;;;;;;;;;;;28.99;26.61;97723.64;1741208;82;20104;-85
2021/06/03 06:09:19;;;;;;;;;;;;;;;29.20;24.55;97726.94;1741427;82;20108;-86
2021/06/03 06:11:45;;;;;;;;;;;;;;;29.45;24.92;97720.88;1741369;82;20105;-86
2021/06/03 06:14:12;;;;;;;;;;;;;;;29.58;24.77;97731.27;1747683;81;20126;-85
2021/06/03 06:16:38;;;;;;;;;;;;;;;29.76;23.46;97731.21;1772057;81;20114;-88
2021/06/03 06:19:06;;;;;;;;;;;;;;;30.09;22.44;97726.86;1746098;81;20400;-85
2021/06/03 06:21:33;;;;;;;;;;;;;;;30.37;30.38;97727.55;1738137;83;20402;-86
2021/06/03 06:23:59;;;;;;;;;;;;;;;30.33;22.05;97723.13;1738360;83;20097;-86
2021/06/03 06:26:26;;;;;;;;;;;;;;;30.26;23.19;97716.13;1738439;83;20124;-84
2021/06/03 06:28:53;;;;;;;;;;;;;;;30.07;28.40;97720.31;1743654;81;20101;-87
2021/06/03 06:31:19;;;;;;;;;;;;;;;30.26;22.93;97718.85;1741485;81;20112;-88
2021/06/03 06:33:47;;;;;;;;;;;;;;;30.55;22.37;97717.64;1740987;82;20100;-87
2021/06/03 06:36:14;;;;;;;;;;;;;;;30.69;22.02;97720.40;1744528;81;20470;-86
2021/06/03 06:38:40;;;;;;;;;;;;;;;30.68;20.65;97711.94;1752805;81;20104;-85
2021/06/03 06:41:07;;;;;;;;;;;;;;;30.87;21.16;97716.72;1766601;81;20117;-87
2021/06/03 06:43:35;;;;;;;;;;;;;;;30.94;22.22;97715.23;1775090;81;20140;-86
2021/06/03 06:46:04;;;;;;;;;;;;;;;30.98;20.79;97718.59;1775125;81;20102;-87
2021/06/03 06:48:30;;;;;;;;;;;;;;;30.89;23.06;97715.11;1775012;81;20179;-86
2021/06/03 06:50:57;;;;;;;;;;;;;;;30.15;22.51;97716.43;1753647;81;20144;-85
2021/06/03 06:53:26;;;;;;;;;;;;;;;29.94;23.06;97723.23;1763919;81;20201;-86
2021/06/03 06:55:53;;;;;;;;;;;;;;;29.91;21.66;97719.91;1772312;81;20156;-85
2021/06/03 06:58:20;;;;;;;;;;;;;;;29.69;23.58;97717.42;1771942;81;20173;-85
2021/06/03 07:00:46;;;;;;;;;;;;;;;28.97;22.62;97722.52;1755267;81;20155;-86
2021/06/03 07:03:12;;;;;;;;;;;;;;;28.47;22.90;97724.80;1762660;80;20104;-87
2021/06/03 07:05:42;;;;;;;;;;;;;;;27.36;23.28;97724.30;1764867;81;20117;-83
2021/06/03 07:08:08;;;;;;;;;;;;;;;26.09;24.82;97725.41;1765026;81;20140;-85
2021/06/03 07:10:35;;;;;;;;;;;;;;;26.41;25.39;97729.66;1766760;80;20096;-84
2021/06/03 07:13:01;;;;;;;;;;;;;;;26.95;26.47;97729.06;1733063;83;20108;-85
2021/06/03 07:15:27;;;;;;;;;;;;;;;27.51;24.65;97722.70;1742955;81;20506;-88
2021/06/03 07:17:55;;;;;;;;;;;;;;;28.00;24.21;97727.86;1729275;82;20110;-88
2021/06/03 07:20:24;;;;;;;;;;;;;;;28.07;26.36;97723.78;1724618;82;20106;-84
2021/06/03 07:22:55;;;;;;;;;;;;;;;28.15;22.86;97726.75;1721727;83;20157;-90
2021/06/03 07:25:24;;;;;;;;;;;;;;;28.24;26.38;97725.42;1721900;83;20134;-89
2021/06/03 07:27:51;;;;;;;;;;;;;;;28.51;23.52;97727.88;1737759;83;20113;-83
2021/06/03 07:30:21;;;;;;;;;;;;;;;28.87;23.22;97726.28;1743239;81;20110;-88
2021/06/03 07:32:51;;;;;;;;;;;;;;;28.85;22.99;97728.38;1765043;81;20188;-89
2021/06/03 07:35:19;;;;;;;;;;;;;;;29.02;24.48;97730.48;1758337;81;20452;-90
2021/06/03 07:37:47;;;;;;;;;;;;;;;28.65;22.32;97734.82;1765989;81;20411;-88
2021/06/03 07:40:16;;;;;;;;;;;;;;;28.51;23.60;97730.06;1766033;81;20410;-87
2021/06/03 07:42:43;;;;;;;;;;;;;;;28.50;22.74;97735.17;1764870;81;20102;-87
2021/06/03 07:45:11;;;;;;;;;;;;;;;27.95;23.46;97735.84;1742564;81;20105;-90
2021/06/03 07:47:40;;;;;;;;;;;;;;;27.67;24.12;97733.00;1743492;81;20409;-88
2021/06/03 07:50:09;;;;;;;;;;;;;;;27.69;24.64;97737.69;1751842;81;20231;-93
2021/06/03 07:52:36;;;;;;;;;;;;;;;27.71;25.00;97735.56;1752987;81;20145;-87
2021/06/03 07:55:05;;;;;;;;;;;;;;;27.83;23.84;97737.58;1735980;82;20165;-87
2021/06/03 07:57:31;;;;;;;;;;;;;;;28.09;24.36;97734.39;1735616;82;20824;-85
2021/06/03 07:59:57;;;;;;;;;;;;;;;28.26;24.01;97733.33;1735655;82;20184;-84
2021/06/03 08:02:24;;;;;;;;;;;;;;;28.47;25.35;97734.80;1752881;81;20139;-86
2021/06/03 08:04:50;;;;;;;;;;;;;;;28.66;23.46;97738.37;1765959;81;20150;-92
2021/06/03 08:07:16;;;;;;;;;;;;;;;28.67;23.51;97734.08;1766171;81;20153;-88
2021/06/03 08:09:44;;;;;;;;;;;;;;;28.65;23.34;97733.47;1748060;81;20116;-87
2021/06/03 08:12:11;;;;;;;;;;;;;;;28.61;22.82;97734.98;1759957;81;20131;-88
2021/06/03 08:14:37;;;;;;;;;;;;;;;28.72;23.27;97735.33;1765867;81;20247;-83
2021/06/03 08:17:03;;;;;;;;;;;;;;;28.92;23.31;97730.48;1752495;81;20151;-89
2021/06/03 08:19:29;;;;;;;;;;;;;;;28.86;23.23;97731.41;1766771;81;20260;-82
2021/06/03 08:21:56;;;;;;;;;;;;;;;28.93;25.71;97729.44;1744981;82;20110;-85
2021/06/03 08:24:22;;;;;;;;;;;;;;;28.79;23.05;97732.83;1768737;81;20153;-90
2021/06/03 08:26:50;;;;;;;;;;;;;;;28.14;23.44;97735.93;1773475;81;20137;-91
2021/06/03 08:29:17;;;;;;;;;;;;;;;27.90;23.15;97737.00;1757705;81;20156;-88
2021/06/03 08:31:44;;;;;;;;;;;;;;;27.62;23.28;97733.34;1758307;81;20133;-88
2021/06/03 08:34:12;;;;;;;;;;;;;;;27.46;25.29;97733.33;1759106;81;20092;-85
2021/06/03 08:36:39;;;;;;;;;;;;;;;26.81;24.51;97734.50;1771802;81;20410;-83
2021/06/03 08:39:06;;;;;;;;;;;;;;;26.98;25.07;97731.85;1765188;81;20495;-84
2021/06/03 08:41:38;;;;;;;;;;;;;;;27.26;24.00;97725.59;1757173;82;20103;-86
2021/06/03 08:44:06;;;;;;;;;;;;;;;27.47;25.39;97733.64;1757524;82;20110;-83
2021/06/03 08:46:33;;;;;;;;;;;;;;;27.65;24.02;97736.98;1757475;82;20135;-84
2021/06/03 08:49:08;;;;;;;;;;;;;;;26.77;23.77;97737.84;1757290;82;20167;-87
2021/06/03 08:51:34;;;;;;;;;;;;;;;25.19;25.10;97730.47;1731699;82;20091;-85
2021/06/03 08:54:01;;;;;;;;;;;;;;;24.45;26.58;97740.84;1757573;82;20103;-88
2021/06/03 08:56:28;;;;;;;;;;;;;;;24.24;27.00;97739.86;1757319;82;20138;-83
2021/06/03 08:59:00;;;;;;;;;;;;;;;23.94;27.53;97744.05;1757143;82;20135;-81
2021/06/03 09:01:28;;;;;;;;;;;;;;;24.10;27.73;97743.45;1757169;82;20179;-87
2021/06/03 09:03:55;;;;;;;;;;;;;;;24.30;27.70;97736.38;1757405;82;20119;-82
2021/06/03 09:06:21;;;;;;;;;;;;;;;24.52;27.83;97739.02;1757286;82;20406;-84
2021/06/03 09:08:52;;;;;;;;;;;;;;;24.39;27.73;97740.27;1757226;82;20399;-86
2021/06/03 09:11:20;;;;;;;;;;;;;;;24.26;27.93;97736.97;1757393;82;20110;-83
2021/06/03 09:13:52;;;;;;;;;;;;;;;24.24;28.25;97737.66;1757431;82;20118;-82
2021/06/03 09:16:22;;;;;;;;;;;;;;;24.38;28.53;97737.25;1757859;82;20095;-81
2021/06/03 09:18:51;;;;;;;;;;;;;;;24.69;28.42;97742.25;1758023;82;20107;-82
2021/06/03 09:21:24;;;;;;;;;;;;;;;24.50;27.91;97739.73;1757864;82;20110;-84
2021/06/03 09:24:02;;;;;;;;;;;;;;;23.71;28.53;97736.97;1757847;82;20304;-85
2021/06/03 09:26:40;;;;;;;;;;;;;;;23.18;28.86;97735.89;1757913;82;20110;-87
2021/06/03 09:29:07;;;;;;;;;;;;;;;22.41;30.50;97732.53;1738024;82;20134;-83
2021/06/03 09:31:35;;;;;;;;;;;;;;;22.38;30.77;97746.80;1757988;82;20166;-90
2021/06/03 09:34:14;;;;;;;;;;;;;;;22.62;31.06;97741.73;1758081;82;20106;-81
2021/06/03 09:36:51;;;;;;;;;;;;;;;22.94;30.44;97743.72;1757852;82;20432;-88
2021/06/03 09:39:24;;;;;;;;;;;;;;;23.24;30.18;97743.72;1751754;82;20102;-84
2021/06/03 09:42:15;;;;;;;;;;;;;;;23.52;29.66;97743.00;1721471;82;20109;-88
2021/06/03 09:44:47;;;;;;;;;;;;;;;23.75;29.97;97741.48;1715320;83;20100;-89
2021/06/03 09:47:15;;;;;;;;;;;;;;;24.09;29.98;97741.78;1734261;82;20424;-88
2021/06/03 09:49:47;;;;;;;;;;;;;;;24.43;29.62;97741.55;1721996;82;20144;-88
2021/06/03 09:52:18;;;;;;;;;;;;;;;24.56;29.01;97741.62;1695632;83;20113;-88
2021/06/03 09:54:53;;;;;;;;;;;;;;;24.64;28.74;97742.81;1730389;81;20441;-83
2021/06/03 09:57:20;;;;;;;;;;;;;;;24.67;29.36;97738.06;1723904;83;20478;-87
2021/06/03 09:59:50;;;;;;;;;;;;;;;24.69;28.63;97736.05;1758795;81;20430;-83
2021/06/03 10:02:20;;;;;;;;;;;;;;;24.74;28.69;97735.77;1757888;81;20194;-85
2021/06/03 10:04:51;;;;;;;;;;;;;;;24.86;29.66;97731.98;1760866;81;20102;-89
2021/06/03 10:07:28;;;;;;;;;;;;;;;24.73;28.82;97731.41;1759146;81;20122;-86
2021/06/03 10:10:07;;;;;;;;;;;;;;;24.43;27.81;97735.64;1760443;81;20158;-84
2021/06/03 10:12:45;;;;;;;;;;;;;;;24.00;28.27;97735.72;1709243;82;20093;-85
2021/06/03 10:15:15;;;;;;;;;;;;;;;23.77;29.25;97734.55;1719350;83;20148;-84
2021/06/03 10:17:58;;;;;;;;;;;;;;;23.74;29.61;97735.77;1745662;81;20419;-84
2021/06/03 10:20:40;;;;;;;;;;;;;;;23.90;29.25;97736.00;1755050;81;20110;-86
2021/06/03 10:23:09;;;;;;;;;;;;;;;23.98;29.60;97738.63;1742400;82;20162;-84
2021/06/03 10:25:36;;;;;;;;;;;;;;;23.94;29.11;97732.44;1748124;81;20117;-83
2021/06/03 10:28:14;;;;;;;;;;;;;;;23.88;29.73;97731.34;1737699;81;20124;-82
2021/06/03 10:30:44;;;;;;;;;;;;;;;24.07;28.96;97733.09;1758726;81;20219;-86
2021/06/03 10:33:14;;;;;;;;;;;;;;;24.08;29.38;97732.08;1736120;83;20187;-81
2021/06/03 10:35:42;;;;;;;;;;;;;;;24.22;28.95;97731.14;1746892;82;20099;-81
2021/06/03 10:38:10;;;;;;;;;;;;;;;24.35;29.67;97728.23;1754004;81;20103;-82
2021/06/03 10:40:42;;;;;;;;;;;;;;;24.52;28.98;97723.36;1753978;81;20140;-83
2021/06/03 10:43:08;;;;;;;;;;;;;;;24.72;29.54;97725.70;1746461;81;20120;-87
2021/06/03 10:45:37;;;;;;;;;;;;;;;24.68;29.11;97726.29;1736078;83;20405;-87
2021/06/03 10:48:04;;;;;;;;;;;;;;;24.62;29.42;97721.99;1752259;81;20732;-83
2021/06/03 10:50:34;;;;;;;;;;;;;;;24.81;29.50;97728.22;1742677;81;20384;-86
2021/06/03 10:53:09;;;;;;;;;;;;;;;25.10;27.93;97719.05;1733147;82;20409;-85
2021/06/03 10:55:37;;;;;;;;;;;;;;;25.23;28.13;97727.70;1752061;81;20098;-86
2021/06/03 10:58:06;;;;;;;;;;;;;;;25.04;26.71;97722.53;1744713;81;20107;-86
2021/06/03 11:00:45;;;;;;;;;;;;;;;25.01;27.54;97726.47;1737190;81;20386;-85
2021/06/03 11:03:19;;;;;;;;;;;;;;;25.07;28.93;97718.09;1736258;83;20110;-83
2021/06/03 11:05:48;;;;;;;;;;;;;;;25.00;29.07;97723.98;1736834;82;20471;-84
2021/06/03 11:08:39;;;;;;;;;;;;;;;25.12;28.63;97716.95;1740671;81;20129;-88
2021/06/03 11:11:12;;;;;;;;;;;;;;;25.16;27.76;97721.42;1735753;83;20105;-88
2021/06/03 11:13:47;;;;;;;;;;;;;;;25.15;28.31;97720.61;1736113;83;20144;-83
2021/06/03 11:16:22;;;;;;;;;;;;;;;25.14;28.83;97720.29;1736610;82;20405;-83
2021/06/03 11:18:51;;;;;;;;;;;;;;;24.59;27.17;97721.03;1741258;82;20148;-87
2021/06/03 11:21:37;;;;;;;;;;;;;;;24.00;28.26;97720.39;1741013;82;20175;-86
2021/06/03 11:24:31;;;;;;;;;;;;;;;23.85;29.42;97720.43;1741094;82;20132;-85
2021/06/03 11:26:59;;;;;;;;;;;;;;;23.97;29.17;97712.72;1741255;82;20120;-87
2021/06/03 11:29:41;;;;;;;;;;;;;;;24.21;29.79;97718.70;1741181;82;20108;-83
2021/06/03 11:32:16;;;;;;;;;;;;;;;24.32;29.43;97720.86;1741924;81;20133;-82
2021/06/03 11:34:45;;;;;;;;;;;;;;;24.37;29.27;97716.72;1765147;81;20182;-82
2021/06/03 11:37:21;;;;;;;;;;;;;;;24.35;28.82;97712.89;1765108;81;20431;-84
2021/06/03 11:39:57;;;;;;;;;;;;;;;24.28;29.16;97720.09;1765191;81;20130;-82
2021/06/03 11:42:41;;;;;;;;;;;;;;;24.39;28.75;97715.52;1765207;81;20110;-82
2021/06/03 11:45:15;;;;;;;;;;;;;;;24.36;29.04;97709.17;1764524;81;20098;-83
2021/06/03 11:47:47;;;;;;;;;;;;;;;24.39;28.59;97710.14;1765263;81;20098;-85
2021/06/03 11:50:20;;;;;;;;;;;;;;;24.17;27.83;97706.67;1765173;81;20431;-87
2021/06/03 11:52:59;;;;;;;;;;;;;;;24.14;29.18;97711.09;1765098;81;20462;-88
2021/06/03 11:55:34;;;;;;;;;;;;;;;24.06;27.99;97703.97;1765090;81;20724;-86
2021/06/03 11:58:16;;;;;;;;;;;;;;;23.98;29.39;97702.27;1765263;81;20203;-85
2021/06/03 12:00:55;;;;;;;;;;;;;;;24.00;29.14;97695.34;1765293;81;20201;-81
2021/06/03 12:03:31;;;;;;;;;;;;;;;24.04;28.89;97699.82;1765309;81;20126;-87
2021/06/03 12:06:00;;;;;;;;;;;;;;;23.91;29.17;97694.60;1765343;81;20157;-87
2021/06/03 12:08:43;;;;;;;;;;;;;;;24.05;29.89;97696.92;1764686;81;20134;-86
2021/06/03 12:11:16;;;;;;;;;;;;;;;24.14;29.78;97695.75;1765255;81;20130;-86
2021/06/03 12:13:43;;;;;;;;;;;;;;;24.25;30.05;97697.59;1765635;81;20182;-87
2021/06/03 12:16:10;;;;;;;;;;;;;;;23.98;29.75;97699.58;1765006;80;20220;-83
2021/06/03 12:18:39;;;;;;;;;;;;;;;23.83;29.56;97695.59;1751838;82;20195;-82
2021/06/03 12:21:08;;;;;;;;;;;;;;;23.62;29.31;97699.10;1751660;82;20114;-84
2021/06/03 12:23:35;;;;;;;;;;;;;;;23.47;30.02;97696.99;1751626;82;20104;-84
2021/06/03 12:26:01;;;;;;;;;;;;;;;23.34;30.14;97696.34;1751555;82;20110;-86
2021/06/03 12:28:31;;;;;;;;;;;;;;;23.38;30.47;97693.08;1751633;82;20134;-83
2021/06/03 12:30:57;;;;;;;;;;;;;;;23.62;30.38;97686.17;1750808;82;20146;-85
2021/06/03 12:33:27;;;;;;;;;;;;;;;23.91;30.04;97695.95;1751756;82;20107;-88
2021/06/03 12:35:59;;;;;;;;;;;;;;;23.81;30.04;97697.64;1744497;82;20164;-88
2021/06/03 12:38:34;;;;;;;;;;;;;;;23.85;29.74;97695.39;1736087;83;20104;-80
2021/06/03 12:41:10;;;;;;;;;;;;;;;23.64;29.77;97697.06;1744228;81;20111;-84
2021/06/03 12:43:39;;;;;;;;;;;;;;;23.37;30.43;97699.48;1759758;81;20193;-83
2021/06/03 12:46:07;;;;;;;;;;;;;;;23.30;30.59;97701.77;1720713;82;20141;-80
2021/06/03 12:48:35;;;;;;;;;;;;;;;23.03;30.55;97694.22;1767009;81;20102;-87
2021/06/03 12:51:02;;;;;;;;;;;;;;;22.88;31.21;97698.27;1766513;81;20173;-86
2021/06/03 12:53:28;;;;;;;;;;;;;;;22.61;31.34;97684.98;1741138;81;20114;-82
2021/06/03 12:55:55;;;;;;;;;;;;;;;22.70;31.53;97704.02;1746780;81;20452;-84
2021/06/03 12:58:23;;;;;;;;;;;;;;;22.71;31.59;97705.69;1751498;82;20449;-80
2021/06/03 13:00:50;;;;;;;;;;;;;;;22.68;31.43;97702.55;1751346;82;20403;-83
2021/06/03 13:03:23;;;;;;;;;;;;;;;22.42;31.90;97705.19;1751455;82;20467;-82
2021/06/03 13:05:53;;;;;;;;;;;;;;;22.15;31.37;97704.23;1750462;82;20130;-85
2021/06/03 13:08:19;;;;;;;;;;;;;;;22.00;31.73;97706.06;1734486;81;20105;-83
2021/06/03 13:10:45;;;;;;;;;;;;;;;21.82;32.28;97704.53;1752116;81;20099;-83
2021/06/03 13:13:12;;;;;;;;;;;;;;;21.73;30.59;97709.64;1751515;82;20423;-88
2021/06/03 13:15:45;;;;;;;;;;;;;;;21.42;31.07;97707.80;1760649;81;20422;-81
2021/06/03 13:18:14;;;;;;;;;;;;;;;21.26;31.61;97714.61;1750647;81;20411;-86
2021/06/03 13:20:53;;;;;;;;;;;;;;;21.22;31.75;97710.94;1734215;83;20162;-83
2021/06/03 13:23:15;;;;;;;;;;;;;;;21.20;32.32;97710.27;1746162;82;20164;-82
2021/06/03 13:25:44;;;;;;;;;;;;;;;21.17;32.65;97715.15;1737924;82;20449;-81
2021/06/03 13:28:12;;;;;;;;;;;;;;;21.16;33.21;97714.33;1713885;83;20477;-82
2021/06/03 13:30:41;;;;;;;;;;;;;;;21.19;33.85;97719.34;1744913;82;20116;-82
2021/06/03 13:33:16;;;;;;;;;;;;;;;21.25;34.10;97718.30;1732468;82;20154;-83
2021/06/03 13:35:54;;;;;;;;;;;;;;;21.34;33.95;97721.27;1746034;81;20134;-83
2021/06/03 13:38:21;;;;;;;;;;;;;;;21.34;34.58;97715.91;1740883;82;20441;-86
2021/06/03 13:40:50;;;;;;;;;;;;;;;21.11;34.98;97728.77;1752980;81;20106;-84
2021/06/03 13:43:25;;;;;;;;;;;;;;;20.97;35.61;97718.78;1746335;81;20481;-84
2021/06/03 13:45:54;;;;;;;;;;;;;;;20.90;35.51;97719.97;1744182;81;20092;-82